createdAt,value
2023-01-25T00:00:55.212Z,2.94
2023-01-25T00:03:22.254Z,2.93
2023-01-25T00:05:49.207Z,2.95
2023-01-25T00:08:16.791Z,2.97
2023-01-25T00:10:43.763Z,3.00
2023-01-25T00:13:10.769Z,3.02
2023-01-25T00:15:38.035Z,3.06
2023-01-25T00:18:05.183Z,3.09
2023-01-25T00:20:32.109Z,3.11
2023-01-25T00:22:59.064Z,3.13
2023-01-25T00:25:26.054Z,3.17
2023-01-25T00:27:53.044Z,3.18
2023-01-25T00:34:26.406Z,3.23
2023-01-25T00:37:18.205Z,3.24
2023-01-25T00:39:45.506Z,3.29
2023-01-25T00:42:14.711Z,3.30
2023-01-25T00:44:42.011Z,3.35
2023-01-25T00:47:11.186Z,3.42
2023-01-25T00:49:40.413Z,3.44
2023-01-25T00:52:09.019Z,3.50
2023-01-25T00:54:36.223Z,3.52
2023-01-25T00:57:03.425Z,3.53
2023-01-25T00:59:30.420Z,3.54
2023-01-25T01:01:57.686Z,3.55
2023-01-25T01:04:27.525Z,3.54
2023-01-25T01:06:55.215Z,3.54
2023-01-25T01:09:23.451Z,3.54
2023-01-25T01:11:50.726Z,3.55
2023-01-25T01:14:17.850Z,3.54
2023-01-25T01:16:44.920Z,3.53
2023-01-25T01:19:11.907Z,3.50
2023-01-25T01:21:39.214Z,3.45
2023-01-25T01:24:07.138Z,3.44
2023-01-25T01:26:34.164Z,3.44
2023-01-25T01:29:01.178Z,3.44
2023-01-25T01:31:28.316Z,3.41
2023-01-25T01:33:58.508Z,3.41
2023-01-25T01:36:28.602Z,3.44
2023-01-25T01:38:55.636Z,3.42
2023-01-25T01:41:22.705Z,3.40
2023-01-25T01:43:49.840Z,3.40
2023-01-25T01:46:28.429Z,3.42
2023-01-25T01:49:09.997Z,3.43
2023-01-25T01:52:02.241Z,3.39
2023-01-25T01:54:39.359Z,3.35
2023-01-25T01:57:31.542Z,3.34
2023-01-25T02:00:09.219Z,3.35
2023-01-25T02:02:36.343Z,3.40
2023-01-25T02:05:08.063Z,3.42
2023-01-25T02:07:39.507Z,3.42
2023-01-25T02:10:10.219Z,3.45
2023-01-25T02:12:38.564Z,3.47
2023-01-25T02:15:07.214Z,3.48
2023-01-25T02:17:37.859Z,3.43
2023-01-25T02:20:38.393Z,3.40
2023-01-25T02:23:40.558Z,3.38
2023-01-25T02:26:07.977Z,3.35
2023-01-25T02:28:54.443Z,3.33
2023-01-25T02:31:21.778Z,3.38
2023-01-25T02:33:48.831Z,3.42
2023-01-25T02:36:27.595Z,3.47
2023-01-25T02:39:13.421Z,3.51
2023-01-25T02:41:43.133Z,3.51
2023-01-25T02:44:18.241Z,3.53
2023-01-25T02:46:45.671Z,3.57
2023-01-25T02:49:12.820Z,3.60
2023-01-25T02:51:44.475Z,3.60
2023-01-25T02:54:13.371Z,3.62
2023-01-25T02:56:41.134Z,3.64
2023-01-25T02:59:09.885Z,3.68
2023-01-25T03:01:39.517Z,3.68
2023-01-25T03:04:07.314Z,3.70
2023-01-25T03:06:35.427Z,3.71
2023-01-25T03:09:07.771Z,3.74
2023-01-25T03:11:35.017Z,3.77
2023-01-25T03:14:02.454Z,3.79
2023-01-25T03:16:31.840Z,3.80
2023-01-25T03:18:58.852Z,3.83
2023-01-25T03:21:26.054Z,3.82
2023-01-25T03:24:00.337Z,3.80
2023-01-25T03:26:28.726Z,3.79
2023-01-25T03:28:55.960Z,3.76
2023-01-25T03:31:23.197Z,3.69
2023-01-25T03:33:50.519Z,3.65
2023-01-25T03:36:17.543Z,3.65
2023-01-25T03:38:44.537Z,3.64
2023-01-25T03:41:13.691Z,3.64
2023-01-25T03:43:40.708Z,3.65
2023-01-25T03:46:08.036Z,3.65
2023-01-25T03:48:35.104Z,3.68
2023-01-25T03:51:02.126Z,3.69
2023-01-25T03:53:31.128Z,3.69
2023-01-25T03:56:02.060Z,3.68
2023-01-25T03:58:30.600Z,3.68
2023-01-25T04:01:00.215Z,3.66
2023-01-25T04:03:31.155Z,3.66
2023-01-25T04:05:59.003Z,3.69
2023-01-25T04:08:27.061Z,3.69
2023-01-25T04:11:03.662Z,3.71
2023-01-25T04:13:30.675Z,3.73
2023-01-25T04:15:57.681Z,3.73
2023-01-25T04:18:24.645Z,3.76
2023-01-25T04:20:56.201Z,3.77
2023-01-25T04:23:25.081Z,3.79
2023-01-25T04:25:57.814Z,3.78
2023-01-25T04:28:25.343Z,3.76
2023-01-25T04:30:54.347Z,3.76
2023-01-25T04:33:21.381Z,3.75
2023-01-25T04:35:48.510Z,3.75
2023-01-25T04:38:15.994Z,3.73
2023-01-25T04:40:43.757Z,3.67
2023-01-25T04:43:14.129Z,3.66
2023-01-25T04:45:41.459Z,3.67
2023-01-25T04:48:10.950Z,3.66
2023-01-25T04:50:40.522Z,3.64
2023-01-25T04:53:08.701Z,3.65
2023-01-25T04:55:36.250Z,3.64
2023-01-25T04:58:03.872Z,3.62
2023-01-25T05:00:32.359Z,3.61
2023-01-25T05:02:59.374Z,3.60
2023-01-25T05:05:26.373Z,3.58
2023-01-25T05:07:53.397Z,3.53
2023-01-25T05:10:20.478Z,3.55
2023-01-25T05:12:47.687Z,3.53
2023-01-25T05:15:14.946Z,3.51
2023-01-25T05:17:41.911Z,3.50
2023-01-25T05:20:12.598Z,3.48
2023-01-25T05:22:39.569Z,3.46
2023-01-25T05:25:27.017Z,3.48
2023-01-25T05:27:53.970Z,3.49
2023-01-25T05:30:20.905Z,3.52
2023-01-25T05:32:50.282Z,3.53
2023-01-25T05:35:17.372Z,3.53
2023-01-25T05:37:44.375Z,3.52
2023-01-25T05:40:12.047Z,3.50
2023-01-25T05:42:39.873Z,3.48
2023-01-25T05:45:08.706Z,3.48
2023-01-25T05:47:35.801Z,3.49
2023-01-25T05:50:03.583Z,3.49
2023-01-25T05:52:30.663Z,3.50
2023-01-25T05:54:57.584Z,3.51
2023-01-25T05:57:24.662Z,3.52
2023-01-25T05:59:51.582Z,3.54
2023-01-25T06:02:19.094Z,3.49
2023-01-25T06:04:46.117Z,3.46
2023-01-25T06:07:13.061Z,3.42
2023-01-25T06:09:39.998Z,3.39
2023-01-25T06:12:07.001Z,3.36
2023-01-25T06:14:34.066Z,3.39
2023-01-25T06:17:01.081Z,3.40
2023-01-25T06:19:28.327Z,3.42
2023-01-25T06:21:55.352Z,3.44
2023-01-25T06:24:22.409Z,3.45
2023-01-25T06:26:49.432Z,3.46
2023-01-25T06:29:16.536Z,3.48
2023-01-25T06:31:43.615Z,3.49
2023-01-25T06:34:10.670Z,3.51
2023-01-25T06:36:37.680Z,3.49
2023-01-25T06:39:04.861Z,3.47
2023-01-25T06:41:31.808Z,3.45
2023-01-25T06:43:58.772Z,3.44
2023-01-25T06:46:25.718Z,3.40
2023-01-25T06:48:52.722Z,3.35
2023-01-25T06:51:19.745Z,3.36
2023-01-25T06:53:47.955Z,3.38
2023-01-25T06:56:22.193Z,3.36
2023-01-25T06:58:50.592Z,3.34
2023-01-25T07:01:27.043Z,3.35
2023-01-25T07:03:57.173Z,3.35
2023-01-25T07:06:25.766Z,3.28
2023-01-25T07:08:52.746Z,3.24
2023-01-25T07:11:20.014Z,3.21
2023-01-25T07:13:48.702Z,3.18
2023-01-25T07:16:19.462Z,3.19
2023-01-25T07:18:46.948Z,3.18
2023-01-25T07:21:16.367Z,3.18
2023-01-25T07:23:43.635Z,3.16
2023-01-25T07:26:17.817Z,3.13
2023-01-25T07:28:46.954Z,3.10
2023-01-25T07:31:15.329Z,3.07
2023-01-25T07:33:42.661Z,3.04
2023-01-25T07:36:11.817Z,3.05
2023-01-25T07:38:38.830Z,3.05
2023-01-25T07:41:06.166Z,3.07
2023-01-25T07:43:33.620Z,3.10
2023-01-25T07:46:05.808Z,3.13
2023-01-25T07:48:33.669Z,3.14
2023-01-25T07:51:25.584Z,3.15
2023-01-25T07:54:02.222Z,3.15
2023-01-25T07:56:35.387Z,3.16
2023-01-25T07:59:02.994Z,3.16
2023-01-25T08:01:35.019Z,3.16
2023-01-25T08:04:03.766Z,3.17
2023-01-25T08:06:38.338Z,3.16
2023-01-25T08:09:25.839Z,3.17
2023-01-25T08:11:53.690Z,3.16
2023-01-25T08:14:20.791Z,3.11
2023-01-25T08:16:47.739Z,3.05
2023-01-25T08:19:14.963Z,3.04
2023-01-25T08:21:42.108Z,3.03
2023-01-25T08:24:09.621Z,3.02
2023-01-25T08:26:37.305Z,2.99
2023-01-25T08:29:05.733Z,2.97
2023-01-25T08:31:35.424Z,2.99
2023-01-25T08:34:02.912Z,3.00
2023-01-25T08:36:30.439Z,3.01
2023-01-25T08:39:01.078Z,3.04
2023-01-25T08:41:30.455Z,3.07
2023-01-25T08:43:58.130Z,3.07
2023-01-25T08:46:31.912Z,3.09
2023-01-25T08:49:02.258Z,3.10
2023-01-25T08:51:31.701Z,3.13
2023-01-25T08:54:12.806Z,3.16
2023-01-25T08:56:41.789Z,3.19
2023-01-25T08:59:12.685Z,3.19
2023-01-25T09:01:39.758Z,3.19
2023-01-25T09:04:06.808Z,3.18
2023-01-25T09:06:34.006Z,3.16
2023-01-25T09:09:00.989Z,3.14
2023-01-25T09:11:28.157Z,3.14
2023-01-25T09:13:55.216Z,3.11
2023-01-25T09:16:30.971Z,3.11
2023-01-25T09:19:02.231Z,3.10
2023-01-25T09:21:30.072Z,3.07
2023-01-25T09:24:05.938Z,3.08
2023-01-25T09:26:36.629Z,3.09
2023-01-25T09:29:04.368Z,3.10
2023-01-25T09:31:31.506Z,3.13
2023-01-25T09:33:58.710Z,3.17
2023-01-25T09:36:26.172Z,3.22
2023-01-25T09:38:53.390Z,3.21
2023-01-25T09:41:58.407Z,3.13
2023-01-25T09:44:46.179Z,3.11
2023-01-25T09:48:00.312Z,3.11
2023-01-25T09:50:45.883Z,3.12
2023-01-25T09:53:22.194Z,3.15
2023-01-25T09:55:54.380Z,3.20
2023-01-25T09:58:31.115Z,3.21
2023-01-25T10:01:39.027Z,3.21
2023-01-25T10:04:23.398Z,3.19
2023-01-25T10:07:00.882Z,3.18
2023-01-25T10:09:58.271Z,3.17
2023-01-25T10:12:27.179Z,3.19
2023-01-25T10:14:54.867Z,3.16
2023-01-25T10:17:37.084Z,3.17
2023-01-25T10:20:18.908Z,3.19
2023-01-25T10:23:19.440Z,3.22
2023-01-25T10:26:02.172Z,3.20
2023-01-25T10:28:42.968Z,3.19
2023-01-25T10:31:16.036Z,3.18
2023-01-25T10:33:47.070Z,3.17
2023-01-25T10:36:18.728Z,3.16
2023-01-25T10:38:57.397Z,3.15
2023-01-25T10:41:36.774Z,3.13
2023-01-25T10:44:22.154Z,3.13
2023-01-25T10:47:07.222Z,3.13
2023-01-25T10:49:47.730Z,3.09
2023-01-25T10:52:14.702Z,3.07
2023-01-25T10:54:41.768Z,3.07
2023-01-25T10:57:15.295Z,3.10
2023-01-25T10:59:47.107Z,3.11
2023-01-25T11:02:44.328Z,3.14
2023-01-25T11:05:33.301Z,3.13
2023-01-25T11:08:16.352Z,3.13
2023-01-25T11:10:46.491Z,3.12
2023-01-25T11:13:16.630Z,3.15
2023-01-25T11:15:47.146Z,3.21
2023-01-25T11:18:35.300Z,3.24
2023-01-25T11:21:18.530Z,3.26
2023-01-25T11:24:04.902Z,3.28
2023-01-25T11:26:34.373Z,3.30
2023-01-25T11:29:24.299Z,3.30
2023-01-25T11:31:55.188Z,3.28
2023-01-25T11:34:27.182Z,3.30
2023-01-25T11:37:21.746Z,3.30
2023-01-25T11:40:33.031Z,3.31
2023-01-25T11:43:11.092Z,3.32
2023-01-25T11:46:10.871Z,3.34
2023-01-25T11:49:09.860Z,3.34
2023-01-25T11:51:47.793Z,3.29
2023-01-25T11:54:46.974Z,3.25
2023-01-25T11:57:34.028Z,3.22
2023-01-25T12:00:56.522Z,3.22
2023-01-25T12:04:00.458Z,3.25
2023-01-25T12:07:08.699Z,3.26
2023-01-25T12:09:41.260Z,3.26
2023-01-25T12:12:59.383Z,3.22
2023-01-25T12:15:54.786Z,3.22
2023-01-25T12:18:48.966Z,3.12
2023-01-25T12:21:37.533Z,3.05
2023-01-25T12:24:15.538Z,2.98
2023-01-25T12:27:18.824Z,2.99
2023-01-25T12:29:55.815Z,3.04
2023-01-25T12:32:41.481Z,3.04
2023-01-25T12:35:37.872Z,3.01
2023-01-25T12:38:38.425Z,2.99
2023-01-25T12:41:28.435Z,2.97
2023-01-25T12:44:27.838Z,2.96
2023-01-25T12:47:10.576Z,2.99
2023-01-25T12:49:55.850Z,3.00
2023-01-25T12:52:36.367Z,2.99
2023-01-25T12:55:13.857Z,2.95
2023-01-25T12:58:26.427Z,2.93
2023-01-25T13:01:33.501Z,2.93
2023-01-25T13:04:28.089Z,2.94
2023-01-25T13:07:30.386Z,2.93
2023-01-25T13:10:12.505Z,2.94
2023-01-25T13:13:00.606Z,2.94
2023-01-25T13:15:38.236Z,2.93
2023-01-25T13:18:33.093Z,2.87
2023-01-25T13:21:04.563Z,2.85
2023-01-25T13:23:52.147Z,2.86
2023-01-25T13:26:22.148Z,2.86
2023-01-25T13:28:51.120Z,2.88
2023-01-25T13:31:57.084Z,2.90
2023-01-25T13:34:39.160Z,2.91
2023-01-25T13:37:32.625Z,2.92
2023-01-25T13:40:07.061Z,2.93
2023-01-25T13:42:39.626Z,2.94
2023-01-25T13:45:20.662Z,2.93
2023-01-25T13:48:21.522Z,2.90
2023-01-25T13:50:59.386Z,2.84
2023-01-25T13:53:33.384Z,2.79
2023-01-25T13:56:02.411Z,2.69
2023-01-25T13:58:33.638Z,2.62
2023-01-25T14:01:06.326Z,2.57
2023-01-25T14:03:44.244Z,2.56
2023-01-25T14:06:39.348Z,2.53
2023-01-25T14:09:20.765Z,2.50
2023-01-25T14:11:58.384Z,2.47
2023-01-25T14:14:34.882Z,2.47
2023-01-25T14:17:09.526Z,2.45
2023-01-25T14:19:39.838Z,2.45
2023-01-25T14:22:33.150Z,2.43
2023-01-25T14:25:12.160Z,2.40
2023-01-25T14:27:57.058Z,2.41
2023-01-25T14:30:27.602Z,2.45
2023-01-25T14:33:17.202Z,2.45
2023-01-25T14:35:56.396Z,2.43
2023-01-25T14:38:30.530Z,2.35
2023-01-25T14:41:22.660Z,2.29
2023-01-25T14:43:53.947Z,2.25
2023-01-25T14:46:33.957Z,2.25
2023-01-25T14:49:26.902Z,2.24
2023-01-25T14:52:10.954Z,2.29
2023-01-25T14:54:59.408Z,2.30
2023-01-25T14:57:35.740Z,2.32
2023-01-25T15:00:07.534Z,2.36
2023-01-25T15:02:58.809Z,2.31
2023-01-25T15:05:33.026Z,2.28
2023-01-25T15:08:09.285Z,2.27
2023-01-25T15:10:38.633Z,2.30
2023-01-25T15:13:15.604Z,2.33
2023-01-25T15:16:03.746Z,2.36
2023-01-25T15:18:54.281Z,2.42
2023-01-25T15:21:48.466Z,2.45
2023-01-25T15:24:15.670Z,2.46
2023-01-25T15:26:43.444Z,2.47
2023-01-25T15:29:17.157Z,2.47
2023-01-25T15:31:44.384Z,2.47
2023-01-25T15:34:34.547Z,2.40
2023-01-25T15:37:01.496Z,2.36
2023-01-25T15:39:28.912Z,2.32
2023-01-25T15:41:56.076Z,2.29
2023-01-25T15:44:23.046Z,2.26
2023-01-25T15:46:51.863Z,2.27
2023-01-25T15:49:26.793Z,2.28
2023-01-25T15:51:55.528Z,2.32
2023-01-25T15:54:24.172Z,2.34
2023-01-25T15:57:00.846Z,2.32
2023-01-25T15:59:28.705Z,2.34
2023-01-25T16:01:55.801Z,2.35
2023-01-25T16:04:25.135Z,2.37
2023-01-25T16:06:54.456Z,2.40
2023-01-25T16:09:21.497Z,2.41
2023-01-25T16:11:55.252Z,2.40
2023-01-25T16:14:26.466Z,2.36
2023-01-25T16:16:53.591Z,2.32
2023-01-25T16:19:23.720Z,2.30
2023-01-25T16:21:51.566Z,2.26
2023-01-25T16:24:19.090Z,2.24
2023-01-25T16:26:55.558Z,2.21
2023-01-25T16:29:23.161Z,2.19
2023-01-25T16:31:51.396Z,2.16
2023-01-25T16:34:20.363Z,2.15
2023-01-25T16:36:50.516Z,2.16
2023-01-25T16:39:25.361Z,2.17
2023-01-25T16:41:52.626Z,2.18
2023-01-25T16:44:19.816Z,2.18
2023-01-25T16:46:50.064Z,2.22
2023-01-25T16:49:21.389Z,2.25
2023-01-25T16:51:51.698Z,2.27
2023-01-25T16:54:20.539Z,2.25
2023-01-25T16:56:49.311Z,2.25
2023-01-25T16:59:17.355Z,2.28
2023-01-25T17:01:45.124Z,2.32
2023-01-25T17:04:12.696Z,2.33
2023-01-25T17:06:43.775Z,2.34
2023-01-25T17:09:22.813Z,2.33
2023-01-25T17:11:51.046Z,2.31
2023-01-25T17:14:19.267Z,2.27
2023-01-25T17:16:48.502Z,2.26
2023-01-25T17:19:17.276Z,2.26
2023-01-25T17:21:44.647Z,2.28
2023-01-25T17:24:14.194Z,2.27
2023-01-25T17:26:42.085Z,2.25
2023-01-25T17:29:10.369Z,2.24
2023-01-25T17:31:38.321Z,2.25
2023-01-25T17:34:08.639Z,2.25
2023-01-25T17:36:35.656Z,2.22
2023-01-25T17:39:07.029Z,2.19
2023-01-25T17:41:34.200Z,2.17
2023-01-25T17:44:01.378Z,2.18
2023-01-25T17:46:33.352Z,2.19
2023-01-25T17:49:02.421Z,2.18
2023-01-25T17:51:31.145Z,2.21
2023-01-25T17:53:59.185Z,2.20
2023-01-25T17:56:27.374Z,2.19
2023-01-25T17:58:54.450Z,2.20
2023-01-25T18:01:34.627Z,2.19
2023-01-25T18:04:01.689Z,2.18
2023-01-25T18:06:30.942Z,2.16
2023-01-25T18:09:02.200Z,2.12
2023-01-25T18:11:33.776Z,2.09
2023-01-25T18:14:08.223Z,2.06
2023-01-25T18:16:38.855Z,2.05
2023-01-25T18:19:07.287Z,2.11
2023-01-25T18:21:34.877Z,2.08
2023-01-25T18:24:21.400Z,2.06
2023-01-25T18:26:48.349Z,2.08
2023-01-25T18:29:17.866Z,2.07
2023-01-25T18:31:45.554Z,2.06
2023-01-25T18:34:12.726Z,2.07
2023-01-25T18:36:39.707Z,2.06
2023-01-25T18:39:08.568Z,2.07
2023-01-25T18:41:35.691Z,2.08
2023-01-25T18:44:02.869Z,2.10
2023-01-25T18:46:30.454Z,2.14
2023-01-25T18:48:57.506Z,2.14
2023-01-25T18:51:26.191Z,2.11
2023-01-25T18:53:53.781Z,2.07
2023-01-25T18:56:22.105Z,2.05
2023-01-25T18:58:51.036Z,2.03
2023-01-25T19:01:21.739Z,2.00
2023-01-25T19:03:50.444Z,2.00
2023-01-25T19:06:19.727Z,2.01
2023-01-25T19:08:53.197Z,2.02
2023-01-25T19:11:22.610Z,2.04
2023-01-25T19:13:51.036Z,2.06
2023-01-25T19:16:26.003Z,2.03
2023-01-25T19:18:55.056Z,2.02
2023-01-25T19:21:25.911Z,2.05
2023-01-25T19:23:54.688Z,2.06
2023-01-25T19:26:24.551Z,2.04
2023-01-25T19:28:52.917Z,2.00
2023-01-25T19:31:24.205Z,1.95
2023-01-25T19:34:04.027Z,1.91
2023-01-25T19:36:37.311Z,1.91
2023-01-25T19:39:09.962Z,1.90
2023-01-25T19:41:38.919Z,1.88
2023-01-25T19:44:07.537Z,1.84
2023-01-25T19:46:36.750Z,1.82
2023-01-25T19:49:08.175Z,1.83
2023-01-25T19:51:38.429Z,1.85
2023-01-25T19:54:17.362Z,1.84
2023-01-25T19:56:47.327Z,1.84
2023-01-25T19:59:20.859Z,1.83
2023-01-25T20:01:48.408Z,1.81
2023-01-25T20:04:22.189Z,1.82
2023-01-25T20:06:50.852Z,1.84
2023-01-25T20:09:20.223Z,1.89
2023-01-25T20:11:47.582Z,1.94
2023-01-25T20:14:15.598Z,1.97
2023-01-25T20:16:42.835Z,2.00
2023-01-25T20:19:12.626Z,2.02
2023-01-25T20:21:39.944Z,2.03
2023-01-25T20:24:09.812Z,2.03
2023-01-25T20:26:40.235Z,2.04
2023-01-25T20:29:08.092Z,2.04
2023-01-25T20:31:40.041Z,2.02
2023-01-25T20:34:13.101Z,2.01
2023-01-25T20:36:40.953Z,2.02
2023-01-25T20:39:10.343Z,2.02
2023-01-25T20:41:37.170Z,2.02
2023-01-25T20:44:07.194Z,1.99
2023-01-25T20:46:37.323Z,1.96
2023-01-25T20:49:07.155Z,1.94
2023-01-25T20:51:35.214Z,1.96
2023-01-25T20:54:02.437Z,1.96
2023-01-25T20:56:29.341Z,1.97
2023-01-25T20:58:56.286Z,1.97
2023-01-25T21:01:30.313Z,1.95
2023-01-25T21:03:58.443Z,1.98
2023-01-25T21:06:27.392Z,2.00
2023-01-25T21:08:55.094Z,2.01
2023-01-25T21:11:23.319Z,2.03
2023-01-25T21:13:50.316Z,2.03
2023-01-25T21:16:23.447Z,2.01
2023-01-25T21:18:56.380Z,1.95
2023-01-25T21:21:31.996Z,1.95
2023-01-25T21:24:02.432Z,1.97
2023-01-25T21:26:32.992Z,1.96
2023-01-25T21:29:02.225Z,1.94
2023-01-25T21:31:32.985Z,1.93
2023-01-25T21:34:01.197Z,1.96
2023-01-25T21:36:28.785Z,1.98
2023-01-25T21:38:56.752Z,1.98
2023-01-25T21:41:27.166Z,1.98
2023-01-25T21:44:14.655Z,1.99
2023-01-25T21:46:44.819Z,1.98
2023-01-25T21:49:32.610Z,1.96
2023-01-25T21:52:04.000Z,1.95
2023-01-25T21:54:37.051Z,1.92
2023-01-25T21:57:09.464Z,1.92
2023-01-25T21:59:38.023Z,1.91
2023-01-25T22:02:06.693Z,1.82
2023-01-25T22:04:36.122Z,1.82
2023-01-25T22:07:04.606Z,1.84
2023-01-25T22:09:32.071Z,1.84
2023-01-25T22:11:59.354Z,1.86
2023-01-25T22:14:26.296Z,1.90
2023-01-25T22:16:55.545Z,1.91
2023-01-25T22:19:22.914Z,1.89
2023-01-25T22:21:49.864Z,1.91
2023-01-25T22:24:17.227Z,1.93
2023-01-25T22:27:08.361Z,1.92
2023-01-25T22:29:35.249Z,1.92
2023-01-25T22:32:02.494Z,1.93
2023-01-25T22:34:29.397Z,1.92
2023-01-25T22:36:56.322Z,1.91
2023-01-25T22:39:23.265Z,1.92
2023-01-25T22:41:50.225Z,1.93
2023-01-25T22:44:17.491Z,1.97
2023-01-25T22:46:44.461Z,2.01
2023-01-25T22:49:11.430Z,2.03
2023-01-25T22:51:38.395Z,2.03
2023-01-25T22:54:05.598Z,2.01
2023-01-25T22:56:33.928Z,2.01
2023-01-25T22:59:02.212Z,2.01
2023-01-25T23:01:32.317Z,2.00
2023-01-25T23:04:00.060Z,1.99
2023-01-25T23:06:35.550Z,1.96
2023-01-25T23:09:06.147Z,1.93
2023-01-25T23:11:37.483Z,1.93
2023-01-25T23:14:30.676Z,1.95
2023-01-25T23:17:17.740Z,1.95
2023-01-25T23:19:45.021Z,1.96
2023-01-25T23:22:12.002Z,1.97
2023-01-25T23:24:39.060Z,2.00
2023-01-25T23:27:06.086Z,2.02
2023-01-25T23:29:33.307Z,2.01
2023-01-25T23:32:00.295Z,2.01
2023-01-25T23:34:27.463Z,2.03
2023-01-25T23:36:54.436Z,2.05
2023-01-25T23:39:23.098Z,2.07
2023-01-25T23:41:51.526Z,2.06
2023-01-25T23:44:18.527Z,2.06
2023-01-25T23:46:45.474Z,2.02
2023-01-25T23:49:12.376Z,2.01
2023-01-25T23:51:39.217Z,1.99
2023-01-25T23:54:06.161Z,1.99
2023-01-25T23:56:33.414Z,1.99
2023-01-25T23:59:00.365Z,2.00
